sensor_id;sensor_type;location;lat;lon;timestamp;pressure;altitude;pressure_sealevel;temperature;humidity
46955;BME280;32708;51.212;6.788;2024-03-23T00:54:58;100409.00;;;9.97;100.00
46955;BME280;32708;51.212;6.788;2024-03-23T00:57:25;100418.13;;;9.92;100.00
46955;BME280;32708;51.212;6.788;2024-03-23T00:59:51;100408.66;;;9.98;100.00
46955;BME280;32708;51.212;6.788;2024-03-23T01:02:17;100405.13;;;9.98;100.00
46955;BME280;32708;51.212;6.788;2024-03-23T01:04:43;100401.28;;;9.99;100.00
46955;BME280;32708;51.212;6.788;2024-03-23T01:07:09;100411.19;;;10.38;100.00
46955;BME280;32708;51.212;6.788;2024-03-23T01:09:35;100389.22;;;10.17;100.00
46955;BME280;32708;51.212;6.788;2024-03-23T01:12:05;100407.47;;;10.42;100.00
46955;BME280;32708;51.212;6.788;2024-03-23T01:14:31;100390.13;;;10.47;100.00
46955;BME280;32708;51.212;6.788;2024-03-23T01:16:58;100375.16;;;9.89;100.00
46955;BME280;32708;51.212;6.788;2024-03-23T01:19:24;100388.25;;;10.39;100.00
46955;BME280;32708;51.212;6.788;2024-03-23T01:21:50;100397.78;;;9.89;100.00
46955;BME280;32708;51.212;6.788;2024-03-23T01:24:16;100386.66;;;10.29;100.00
46955;BME280;32708;51.212;6.788;2024-03-23T01:26:42;100394.41;;;9.49;100.00
46955;BME280;32708;51.212;6.788;2024-03-23T01:29:08;100394.88;;;10.03;100.00
46955;BME280;32708;51.212;6.788;2024-03-23T01:31:35;100399.03;;;9.92;100.00
46955;BME280;32708;51.212;6.788;2024-03-23T01:34:01;100405.44;;;10.05;100.00
46955;BME280;32708;51.212;6.788;2024-03-23T01:36:27;100388.41;;;9.04;100.00
46955;BME280;32708;51.212;6.788;2024-03-23T01:38:53;100372.88;;;8.96;100.00
46955;BME280;32708;51.212;6.788;2024-03-23T01:41:20;100380.56;;;8.94;100.00
46955;BME280;32708;51.212;6.788;2024-03-23T01:43:46;100383.06;;;8.73;100.00
46955;BME280;32708;51.212;6.788;2024-03-23T01:46:12;100378.88;;;8.67;100.00
46955;BME280;32708;51.212;6.788;2024-03-23T01:48:39;100384.25;;;8.98;100.00
46955;BME280;32708;51.212;6.788;2024-03-23T01:51:06;100371.47;;;8.59;100.00
46955;BME280;32708;51.212;6.788;2024-03-23T01:53:32;100379.50;;;8.33;100.00
46955;BME280;32708;51.212;6.788;2024-03-23T01:55:58;100384.69;;;8.91;100.00
46955;BME280;32708;51.212;6.788;2024-03-23T01:58:24;100380.31;;;9.30;100.00
46955;BME280;32708;51.212;6.788;2024-03-23T02:00:51;100364.09;;;9.42;100.00
46955;BME280;32708;51.212;6.788;2024-03-23T02:03:25;100351.22;;;10.03;100.00
46955;BME280;32708;51.212;6.788;2024-03-23T02:05:54;100350.94;;;9.87;100.00
46955;BME280;32708;51.212;6.788;2024-03-23T02:08:22;100344.00;;;9.99;100.00
46955;BME280;32708;51.212;6.788;2024-03-23T02:10:49;100325.72;;;10.08;100.00
46955;BME280;32708;51.212;6.788;2024-03-23T02:13:18;100336.00;;;10.02;100.00
46955;BME280;32708;51.212;6.788;2024-03-23T02:15:45;100324.16;;;9.89;100.00
46955;BME280;32708;51.212;6.788;2024-03-23T02:18:11;100320.81;;;9.75;100.00
46955;BME280;32708;51.212;6.788;2024-03-23T02:20:38;100307.81;;;9.81;100.00
46955;BME280;32708;51.212;6.788;2024-03-23T02:23:05;100311.28;;;9.99;100.00
46955;BME280;32708;51.212;6.788;2024-03-23T02:25:34;100299.88;;;10.05;100.00
46955;BME280;32708;51.212;6.788;2024-03-23T02:28:00;100298.00;;;9.88;100.00
46955;BME280;32708;51.212;6.788;2024-03-23T02:30:27;100299.25;;;10.08;100.00
46955;BME280;32708;51.212;6.788;2024-03-23T02:32:53;100300.00;;;10.17;100.00
46955;BME280;32708;51.212;6.788;2024-03-23T02:35:19;100299.94;;;10.43;100.00
46955;BME280;32708;51.212;6.788;2024-03-23T02:37:47;100313.88;;;10.51;100.00
46955;BME280;32708;51.212;6.788;2024-03-23T02:40:17;100308.63;;;10.37;100.00
46955;BME280;32708;51.212;6.788;2024-03-23T02:42:43;100315.19;;;10.44;100.00
46955;BME280;32708;51.212;6.788;2024-03-23T02:45:09;100319.88;;;10.27;100.00
46955;BME280;32708;51.212;6.788;2024-03-23T02:47:36;100327.47;;;10.04;100.00
46955;BME280;32708;51.212;6.788;2024-03-23T02:50:02;100317.00;;;10.32;100.00
46955;BME280;32708;51.212;6.788;2024-03-23T02:52:28;100310.81;;;9.97;100.00
46955;BME280;32708;51.212;6.788;2024-03-23T02:54:54;100306.28;;;10.09;100.00
46955;BME280;32708;51.212;6.788;2024-03-23T02:57:20;100310.44;;;10.24;100.00
46955;BME280;32708;51.212;6.788;2024-03-23T02:59:46;100307.53;;;10.29;100.00
46955;BME280;32708;51.212;6.788;2024-03-23T03:02:15;100309.09;;;10.39;100.00
46955;BME280;32708;51.212;6.788;2024-03-23T03:04:42;100310.81;;;10.52;100.00
46955;BME280;32708;51.212;6.788;2024-03-23T03:07:08;100315.63;;;10.46;100.00
46955;BME280;32708;51.212;6.788;2024-03-23T03:09:34;100309.22;;;10.51;100.00
46955;BME280;32708;51.212;6.788;2024-03-23T03:12:07;100320.69;;;10.36;100.00
46955;BME280;32708;51.212;6.788;2024-03-23T03:14:34;100323.03;;;10.46;100.00
46955;BME280;32708;51.212;6.788;2024-03-23T03:17:01;100313.06;;;9.95;100.00
46955;BME280;32708;51.212;6.788;2024-03-23T03:19:27;100300.38;;;10.07;100.00
46955;BME280;32708;51.212;6.788;2024-03-23T03:21:53;100285.47;;;9.96;100.00
46955;BME280;32708;51.212;6.788;2024-03-23T03:24:19;100303.13;;;9.90;100.00
46955;BME280;32708;51.212;6.788;2024-03-23T03:26:46;100316.63;;;9.86;100.00
46955;BME280;32708;51.212;6.788;2024-03-23T03:29:12;100320.25;;;10.08;100.00
46955;BME280;32708;51.212;6.788;2024-03-23T03:31:39;100308.88;;;9.97;100.00
46955;BME280;32708;51.212;6.788;2024-03-23T03:34:05;100320.28;;;9.90;100.00
46955;BME280;32708;51.212;6.788;2024-03-23T03:36:31;100320.47;;;9.94;100.00
46955;BME280;32708;51.212;6.788;2024-03-23T03:38:58;100313.25;;;9.81;100.00
46955;BME280;32708;51.212;6.788;2024-03-23T03:41:24;100311.25;;;10.16;100.00
46955;BME280;32708;51.212;6.788;2024-03-23T03:43:50;100318.38;;;9.91;100.00
46955;BME280;32708;51.212;6.788;2024-03-23T03:46:17;100314.81;;;9.99;100.00
46955;BME280;32708;51.212;6.788;2024-03-23T03:48:43;100312.72;;;10.05;100.00
46955;BME280;32708;51.212;6.788;2024-03-23T03:51:11;100302.09;;;10.29;100.00
46955;BME280;32708;51.212;6.788;2024-03-23T03:53:37;100311.94;;;10.42;100.00
46955;BME280;32708;51.212;6.788;2024-03-23T03:56:03;100304.50;;;10.22;100.00
46955;BME280;32708;51.212;6.788;2024-03-23T03:58:29;100316.44;;;9.91;100.00
46955;BME280;32708;51.212;6.788;2024-03-23T04:00:55;100305.81;;;10.07;100.00
46955;BME280;32708;51.212;6.788;2024-03-23T04:03:21;100315.41;;;10.22;100.00
46955;BME280;32708;51.212;6.788;2024-03-23T04:05:54;100319.84;;;10.35;100.00
46955;BME280;32708;51.212;6.788;2024-03-23T04:08:21;100320.72;;;10.10;100.00
46955;BME280;32708;51.212;6.788;2024-03-23T04:10:48;100323.81;;;9.91;100.00
46955;BME280;32708;51.212;6.788;2024-03-23T04:13:14;100310.44;;;10.15;100.00
46955;BME280;32708;51.212;6.788;2024-03-23T04:15:40;100318.75;;;10.19;100.00
46955;BME280;32708;51.212;6.788;2024-03-23T04:18:07;100316.84;;;10.19;100.00
46955;BME280;32708;51.212;6.788;2024-03-23T04:20:33;100325.47;;;9.75;100.00
46955;BME280;32708;51.212;6.788;2024-03-23T04:22:59;100324.78;;;9.95;100.00
46955;BME280;32708;51.212;6.788;2024-03-23T04:25:26;100338.94;;;9.62;100.00
46955;BME280;32708;51.212;6.788;2024-03-23T04:27:52;100332.38;;;9.72;100.00
46955;BME280;32708;51.212;6.788;2024-03-23T04:30:18;100337.84;;;9.46;100.00
46955;BME280;32708;51.212;6.788;2024-03-23T04:32:45;100343.13;;;9.51;100.00
46955;BME280;32708;51.212;6.788;2024-03-23T04:35:11;100322.41;;;9.76;100.00
46955;BME280;32708;51.212;6.788;2024-03-23T04:37:39;100329.97;;;9.62;100.00
46955;BME280;32708;51.212;6.788;2024-03-23T04:40:08;100331.88;;;9.70;100.00
46955;BME280;32708;51.212;6.788;2024-03-23T04:42:35;100338.16;;;9.53;100.00
46955;BME280;32708;51.212;6.788;2024-03-23T04:45:01;100342.78;;;9.79;100.00
46955;BME280;32708;51.212;6.788;2024-03-23T04:47:27;100332.72;;;9.45;100.00
46955;BME280;32708;51.212;6.788;2024-03-23T04:49:55;100337.97;;;9.41;100.00
46955;BME280;32708;51.212;6.788;2024-03-23T04:52:21;100345.03;;;9.16;100.00
46955;BME280;32708;51.212;6.788;2024-03-23T04:54:47;100343.28;;;9.37;100.00
46955;BME280;32708;51.212;6.788;2024-03-23T04:57:13;100342.72;;;8.75;100.00
46955;BME280;32708;51.212;6.788;2024-03-23T04:59:47;100348.03;;;8.97;100.00
46955;BME280;32708;51.212;6.788;2024-03-23T05:02:14;100346.56;;;8.82;100.00
46955;BME280;32708;51.212;6.788;2024-03-23T05:04:41;100344.38;;;8.93;100.00
46955;BME280;32708;51.212;6.788;2024-03-23T05:07:08;100338.94;;;9.19;100.00
46955;BME280;32708;51.212;6.788;2024-03-23T05:09:34;100335.13;;;9.37;100.00
46955;BME280;32708;51.212;6.788;2024-03-23T05:12:00;100351.84;;;8.79;100.00
46955;BME280;32708;51.212;6.788;2024-03-23T05:14:26;100359.84;;;8.84;100.00
46955;BME280;32708;51.212;6.788;2024-03-23T05:16:53;100355.53;;;8.74;100.00
46955;BME280;32708;51.212;6.788;2024-03-23T05:19:19;100357.78;;;8.81;100.00
46955;BME280;32708;51.212;6.788;2024-03-23T05:21:46;100370.50;;;8.23;100.00
46955;BME280;32708;51.212;6.788;2024-03-23T05:24:12;100387.25;;;8.17;100.00
46955;BME280;32708;51.212;6.788;2024-03-23T05:26:38;100374.34;;;8.53;100.00
46955;BME280;32708;51.212;6.788;2024-03-23T05:29:04;100372.78;;;8.70;100.00
46955;BME280;32708;51.212;6.788;2024-03-23T05:31:32;100370.00;;;8.52;100.00
46955;BME280;32708;51.212;6.788;2024-03-23T05:33:58;100360.47;;;8.72;100.00
46955;BME280;32708;51.212;6.788;2024-03-23T05:36:25;100369.34;;;8.95;100.00
46955;BME280;32708;51.212;6.788;2024-03-23T05:38:51;100363.13;;;9.12;100.00
46955;BME280;32708;51.212;6.788;2024-03-23T05:41:17;100359.94;;;9.27;100.00
46955;BME280;32708;51.212;6.788;2024-03-23T05:43:43;100362.78;;;9.05;100.00
46955;BME280;32708;51.212;6.788;2024-03-23T05:46:09;100360.19;;;8.82;100.00
46955;BME280;32708;51.212;6.788;2024-03-23T05:48:36;100348.25;;;9.27;100.00
46955;BME280;32708;51.212;6.788;2024-03-23T05:51:02;100360.38;;;9.03;100.00
46955;BME280;32708;51.212;6.788;2024-03-23T05:53:29;100354.25;;;8.72;100.00
46955;BME280;32708;51.212;6.788;2024-03-23T05:56:03;100358.41;;;8.78;100.00
46955;BME280;32708;51.212;6.788;2024-03-23T05:58:30;100367.19;;;8.66;100.00
46955;BME280;32708;51.212;6.788;2024-03-23T06:01:01;100360.75;;;8.62;100.00
46955;BME280;32708;51.212;6.788;2024-03-23T06:03:29;100358.00;;;9.10;100.00
46955;BME280;32708;51.212;6.788;2024-03-23T06:05:56;100367.25;;;8.92;100.00
46955;BME280;32708;51.212;6.788;2024-03-23T06:08:23;100370.97;;;8.57;100.00
46955;BME280;32708;51.212;6.788;2024-03-23T06:10:50;100383.78;;;8.56;100.00
46955;BME280;32708;51.212;6.788;2024-03-23T06:13:16;100383.16;;;8.59;100.00
46955;BME280;32708;51.212;6.788;2024-03-23T06:15:44;100385.53;;;9.00;100.00
46955;BME280;32708;51.212;6.788;2024-03-23T06:18:12;100384.81;;;8.77;100.00
46955;BME280;32708;51.212;6.788;2024-03-23T06:20:38;100390.78;;;8.88;100.00
46955;BME280;32708;51.212;6.788;2024-03-23T06:23:05;100387.28;;;8.48;100.00
46955;BME280;32708;51.212;6.788;2024-03-23T06:25:31;100391.34;;;8.68;100.00
46955;BME280;32708;51.212;6.788;2024-03-23T06:27:57;100384.31;;;8.67;100.00
46955;BME280;32708;51.212;6.788;2024-03-23T06:30:24;100377.41;;;9.35;100.00
46955;BME280;32708;51.212;6.788;2024-03-23T06:32:52;100358.81;;;9.63;100.00
46955;BME280;32708;51.212;6.788;2024-03-23T06:35:19;100328.31;;;10.42;100.00
46955;BME280;32708;51.212;6.788;2024-03-23T06:37:45;100325.38;;;10.86;100.00
46955;BME280;32708;51.212;6.788;2024-03-23T06:40:11;100317.00;;;10.91;100.00
46955;BME280;32708;51.212;6.788;2024-03-23T06:42:37;100306.97;;;12.24;100.00
46955;BME280;32708;51.212;6.788;2024-03-23T06:45:05;100321.25;;;10.80;100.00
46955;BME280;32708;51.212;6.788;2024-03-23T06:47:32;100334.94;;;10.71;100.00
46955;BME280;32708;51.212;6.788;2024-03-23T06:50:01;100305.41;;;11.90;100.00
46955;BME280;32708;51.212;6.788;2024-03-23T06:52:28;100304.56;;;12.34;100.00
46955;BME280;32708;51.212;6.788;2024-03-23T06:54:54;100308.66;;;12.28;100.00
46955;BME280;32708;51.212;6.788;2024-03-23T06:57:21;100322.03;;;11.84;100.00
46955;BME280;32708;51.212;6.788;2024-03-23T06:59:47;100317.69;;;12.17;100.00
46955;BME280;32708;51.212;6.788;2024-03-23T07:02:14;100315.59;;;13.11;100.00
46955;BME280;32708;51.212;6.788;2024-03-23T07:04:40;100317.28;;;13.28;100.00
46955;BME280;32708;51.212;6.788;2024-03-23T07:07:06;100316.47;;;12.51;100.00
46955;BME280;32708;51.212;6.788;2024-03-23T07:09:33;100331.28;;;12.37;100.00
46955;BME280;32708;51.212;6.788;2024-03-23T07:11:59;100323.41;;;12.73;100.00
46955;BME280;32708;51.212;6.788;2024-03-23T07:14:25;100320.84;;;13.16;100.00
46955;BME280;32708;51.212;6.788;2024-03-23T07:16:52;100318.97;;;12.80;100.00
46955;BME280;32708;51.212;6.788;2024-03-23T07:19:19;100317.81;;;12.93;100.00
46955;BME280;32708;51.212;6.788;2024-03-23T07:21:48;100326.03;;;12.45;100.00
46955;BME280;32708;51.212;6.788;2024-03-23T07:24:15;100313.81;;;12.66;100.00
46955;BME280;32708;51.212;6.788;2024-03-23T07:26:44;100316.88;;;12.89;100.00
46955;BME280;32708;51.212;6.788;2024-03-23T07:29:10;100327.84;;;11.62;100.00
46955;BME280;32708;51.212;6.788;2024-03-23T07:31:36;100328.13;;;12.02;100.00
46955;BME280;32708;51.212;6.788;2024-03-23T07:34:03;100325.38;;;13.37;100.00
46955;BME280;32708;51.212;6.788;2024-03-23T07:36:29;100309.41;;;13.55;100.00
46955;BME280;32708;51.212;6.788;2024-03-23T07:38:58;100309.50;;;13.86;100.00
46955;BME280;32708;51.212;6.788;2024-03-23T07:41:24;100313.19;;;13.78;100.00
46955;BME280;32708;51.212;6.788;2024-03-23T07:43:51;100308.06;;;13.76;100.00
46955;BME280;32708;51.212;6.788;2024-03-23T07:46:21;100320.50;;;13.58;100.00
46955;BME280;32708;51.212;6.788;2024-03-23T07:48:59;100314.22;;;13.05;100.00
46955;BME280;32708;51.212;6.788;2024-03-23T07:51:39;100336.41;;;12.88;100.00
46955;BME280;32708;51.212;6.788;2024-03-23T07:54:05;100317.38;;;13.72;100.00
46955;BME280;32708;51.212;6.788;2024-03-23T07:56:43;100328.25;;;13.16;100.00
46955;BME280;32708;51.212;6.788;2024-03-23T07:59:09;100329.19;;;13.20;100.00
46955;BME280;32708;51.212;6.788;2024-03-23T08:01:35;100312.69;;;13.44;100.00
46955;BME280;32708;51.212;6.788;2024-03-23T08:04:02;100310.34;;;14.34;100.00
46955;BME280;32708;51.212;6.788;2024-03-23T08:06:28;100316.91;;;14.45;100.00
46955;BME280;32708;51.212;6.788;2024-03-23T08:09:00;100312.50;;;13.81;100.00
46955;BME280;32708;51.212;6.788;2024-03-23T08:11:31;100309.78;;;13.97;100.00
46955;BME280;32708;51.212;6.788;2024-03-23T08:14:17;100291.94;;;15.01;100.00
46955;BME280;32708;51.212;6.788;2024-03-23T08:21:22;100306.06;;;14.21;100.00
46955;BME280;32708;51.212;6.788;2024-03-23T08:25:30;100334.25;;;12.69;100.00
46955;BME280;32708;51.212;6.788;2024-03-23T08:28:15;100331.78;;;11.73;100.00
46955;BME280;32708;51.212;6.788;2024-03-23T08:32:04;100325.78;;;12.50;100.00
46955;BME280;32708;51.212;6.788;2024-03-23T08:34:51;100318.72;;;12.61;100.00
46955;BME280;32708;51.212;6.788;2024-03-23T08:37:23;100329.78;;;11.82;100.00
46955;BME280;32708;51.212;6.788;2024-03-23T08:44:10;100302.19;;;13.62;100.00
46955;BME280;32708;51.212;6.788;2024-03-23T08:46:57;100294.84;;;14.10;99.46
46955;BME280;32708;51.212;6.788;2024-03-23T08:50:22;100320.84;;;12.06;100.00
46955;BME280;32708;51.212;6.788;2024-03-23T08:53:07;100329.34;;;11.80;100.00
46955;BME280;32708;51.212;6.788;2024-03-23T08:59:38;100325.88;;;11.50;100.00
46955;BME280;32708;51.212;6.788;2024-03-23T09:02:47;100326.03;;;12.45;100.00
46955;BME280;32708;51.212;6.788;2024-03-23T09:14:04;100319.66;;;13.86;100.00
46955;BME280;32708;51.212;6.788;2024-03-23T09:32:08;100335.47;;;13.61;100.00
46955;BME280;32708;51.212;6.788;2024-03-23T09:40:01;100314.66;;;11.97;100.00
46955;BME280;32708;51.212;6.788;2024-03-23T09:48:07;100304.50;;;13.20;93.34
46955;BME280;32708;51.212;6.788;2024-03-23T09:50:50;100307.47;;;11.93;100.00
46955;BME280;32708;51.212;6.788;2024-03-23T09:54:59;100310.84;;;12.35;100.00
46955;BME280;32708;51.212;6.788;2024-03-23T09:59:13;100311.34;;;11.92;100.00
46955;BME280;32708;51.212;6.788;2024-03-23T10:24:50;100290.56;;;14.13;81.39
46955;BME280;32708;51.212;6.788;2024-03-23T10:30:40;100335.84;;;10.84;100.00
46955;BME280;32708;51.212;6.788;2024-03-23T10:37:29;100399.94;;;8.52;100.00
46955;BME280;32708;51.212;6.788;2024-03-23T10:43:59;100402.28;;;8.76;100.00
46955;BME280;32708;51.212;6.788;2024-03-23T10:48:27;100401.81;;;8.21;100.00
46955;BME280;32708;51.212;6.788;2024-03-23T11:04:36;100418.78;;;8.49;100.00
46955;BME280;32708;51.212;6.788;2024-03-23T11:07:36;100403.78;;;8.51;100.00
46955;BME280;32708;51.212;6.788;2024-03-23T11:10:35;100400.34;;;8.77;100.00
46955;BME280;32708;51.212;6.788;2024-03-23T11:13:25;100398.28;;;8.82;100.00
46955;BME280;32708;51.212;6.788;2024-03-23T11:15:54;100389.28;;;9.48;100.00
46955;BME280;32708;51.212;6.788;2024-03-23T11:18:49;100381.28;;;9.60;100.00
46955;BME280;32708;51.212;6.788;2024-03-23T11:21:55;100389.75;;;9.32;100.00
46955;BME280;32708;51.212;6.788;2024-03-23T11:24:40;100382.22;;;9.29;100.00
46955;BME280;32708;51.212;6.788;2024-03-23T11:27:27;100357.94;;;10.06;100.00
46955;BME280;32708;51.212;6.788;2024-03-23T11:30:25;100365.69;;;10.59;100.00
46955;BME280;32708;51.212;6.788;2024-03-23T11:33:12;100347.41;;;11.31;100.00
46955;BME280;32708;51.212;6.788;2024-03-23T11:35:42;100327.03;;;12.16;100.00
46955;BME280;32708;51.212;6.788;2024-03-23T11:38:19;100336.38;;;12.15;100.00
46955;BME280;32708;51.212;6.788;2024-03-23T11:40:56;100336.31;;;12.60;100.00
46955;BME280;32708;51.212;6.788;2024-03-23T11:43:31;100319.28;;;12.54;100.00
46955;BME280;32708;51.212;6.788;2024-03-23T11:46:00;100335.06;;;12.45;100.00
46955;BME280;32708;51.212;6.788;2024-03-23T11:48:29;100327.75;;;12.37;100.00
46955;BME280;32708;51.212;6.788;2024-03-23T11:51:00;100328.66;;;13.42;100.00
46955;BME280;32708;51.212;6.788;2024-03-23T11:53:40;100319.91;;;11.15;100.00
46955;BME280;32708;51.212;6.788;2024-03-23T11:56:09;100411.03;;;7.66;100.00
46955;BME280;32708;51.212;6.788;2024-03-23T11:58:35;100404.94;;;7.83;100.00
46955;BME280;32708;51.212;6.788;2024-03-23T12:01:11;100397.13;;;8.13;100.00
46955;BME280;32708;51.212;6.788;2024-03-23T12:03:44;100379.38;;;8.38;100.00
46955;BME280;32708;51.212;6.788;2024-03-23T12:06:22;100391.16;;;9.13;100.00
46955;BME280;32708;51.212;6.788;2024-03-23T12:09:05;100371.19;;;9.43;100.00
46955;BME280;32708;51.212;6.788;2024-03-23T12:15:29;100375.47;;;9.09;100.00
46955;BME280;32708;51.212;6.788;2024-03-23T12:18:31;100366.44;;;8.83;100.00
46955;BME280;32708;51.212;6.788;2024-03-23T12:24:54;100376.94;;;9.16;100.00
46955;BME280;32708;51.212;6.788;2024-03-23T12:27:41;100360.13;;;9.65;100.00
46955;BME280;32708;51.212;6.788;2024-03-23T12:30:18;100368.41;;;9.95;100.00
46955;BME280;32708;51.212;6.788;2024-03-23T12:33:13;100362.53;;;9.58;100.00
46955;BME280;32708;51.212;6.788;2024-03-23T12:35:55;100354.72;;;10.30;100.00
46955;BME280;32708;51.212;6.788;2024-03-23T12:38:54;100358.50;;;9.82;100.00
46955;BME280;32708;51.212;6.788;2024-03-23T12:41:44;100346.00;;;9.63;100.00
46955;BME280;32708;51.212;6.788;2024-03-23T12:44:31;100354.66;;;9.57;100.00
46955;BME280;32708;51.212;6.788;2024-03-23T12:47:18;100353.31;;;9.98;100.00
46955;BME280;32708;51.212;6.788;2024-03-23T12:50:07;100338.56;;;10.07;100.00
46955;BME280;32708;51.212;6.788;2024-03-23T12:52:49;100341.75;;;10.56;100.00
46955;BME280;32708;51.212;6.788;2024-03-23T12:55:49;100330.28;;;10.71;100.00
46955;BME280;32708;51.212;6.788;2024-03-23T13:02:05;100321.81;;;11.15;100.00
46955;BME280;32708;51.212;6.788;2024-03-23T13:04:53;100314.88;;;11.17;100.00
46955;BME280;32708;51.212;6.788;2024-03-23T13:07:44;100315.16;;;11.24;100.00
46955;BME280;32708;51.212;6.788;2024-03-23T13:10:30;100316.81;;;10.96;100.00
46955;BME280;32708;51.212;6.788;2024-03-23T13:13:14;100340.00;;;9.96;100.00
46955;BME280;32708;51.212;6.788;2024-03-23T13:15:54;100470.06;;;8.11;100.00
46955;BME280;32708;51.212;6.788;2024-03-23T13:18:35;100415.88;;;7.56;100.00
46955;BME280;32708;51.212;6.788;2024-03-23T13:21:14;100392.75;;;7.58;100.00
46955;BME280;32708;51.212;6.788;2024-03-23T13:23:54;100369.63;;;8.14;100.00
46955;BME280;32708;51.212;6.788;2024-03-23T13:26:55;100342.84;;;8.30;100.00
46955;BME280;32708;51.212;6.788;2024-03-23T13:29:48;100327.06;;;9.06;100.00
46955;BME280;32708;51.212;6.788;2024-03-23T13:32:30;100302.59;;;10.05;100.00
46955;BME280;32708;51.212;6.788;2024-03-23T13:35:16;100296.03;;;9.98;100.00
46955;BME280;32708;51.212;6.788;2024-03-23T13:37:52;100287.31;;;10.30;100.00
46955;BME280;32708;51.212;6.788;2024-03-23T13:40:25;100286.47;;;10.38;100.00
46955;BME280;32708;51.212;6.788;2024-03-23T13:45:50;100278.94;;;10.65;100.00
46955;BME280;32708;51.212;6.788;2024-03-23T13:48:28;100273.03;;;10.84;100.00
46955;BME280;32708;51.212;6.788;2024-03-23T13:51:12;100282.16;;;10.20;100.00
46955;BME280;32708;51.212;6.788;2024-03-23T13:53:59;100278.97;;;9.62;100.00
46955;BME280;32708;51.212;6.788;2024-03-23T13:56:36;100278.19;;;10.17;100.00
46955;BME280;32708;51.212;6.788;2024-03-23T13:59:29;100285.84;;;9.69;100.00
46955;BME280;32708;51.212;6.788;2024-03-23T14:02:21;100285.72;;;10.29;100.00
46955;BME280;32708;51.212;6.788;2024-03-23T14:05:28;100274.03;;;11.00;100.00
46955;BME280;32708;51.212;6.788;2024-03-23T14:08:16;100272.09;;;10.80;100.00
46955;BME280;32708;51.212;6.788;2024-03-23T14:11:02;100278.16;;;11.27;100.00
46955;BME280;32708;51.212;6.788;2024-03-23T14:13:41;100275.91;;;11.29;100.00
46955;BME280;32708;51.212;6.788;2024-03-23T14:20:04;100264.63;;;11.10;100.00
46955;BME280;32708;51.212;6.788;2024-03-23T14:22:57;100245.13;;;11.53;100.00
46955;BME280;32708;51.212;6.788;2024-03-23T14:25:52;100250.94;;;11.51;100.00
46955;BME280;32708;51.212;6.788;2024-03-23T14:28:31;100263.22;;;11.24;100.00
46955;BME280;32708;51.212;6.788;2024-03-23T14:31:10;100302.59;;;10.23;100.00
46955;BME280;32708;51.212;6.788;2024-03-23T14:33:40;100318.78;;;9.29;100.00
46955;BME280;32708;51.212;6.788;2024-03-23T14:36:21;100316.97;;;9.07;100.00
46955;BME280;32708;51.212;6.788;2024-03-23T14:39:02;100309.63;;;9.07;100.00
46955;BME280;32708;51.212;6.788;2024-03-23T14:42:12;100300.66;;;9.16;100.00
46955;BME280;32708;51.212;6.788;2024-03-23T14:45:35;100290.25;;;9.00;100.00
46955;BME280;32708;51.212;6.788;2024-03-23T14:48:24;100276.94;;;9.33;100.00
46955;BME280;32708;51.212;6.788;2024-03-23T14:51:04;100277.41;;;9.27;100.00
46955;BME280;32708;51.212;6.788;2024-03-23T14:54:24;100283.53;;;9.15;100.00
46955;BME280;32708;51.212;6.788;2024-03-23T14:57:38;100278.81;;;9.68;100.00
46955;BME280;32708;51.212;6.788;2024-03-23T15:00:40;100263.06;;;9.82;100.00
46955;BME280;32708;51.212;6.788;2024-03-23T15:03:42;100269.78;;;9.84;100.00
46955;BME280;32708;51.212;6.788;2024-03-23T15:06:50;100244.72;;;9.91;100.00
46955;BME280;32708;51.212;6.788;2024-03-23T15:09:54;100252.81;;;9.79;100.00
46955;BME280;32708;51.212;6.788;2024-03-23T15:12:40;100246.66;;;9.90;100.00
46955;BME280;32708;51.212;6.788;2024-03-23T15:15:23;100237.69;;;9.90;100.00
46955;BME280;32708;51.212;6.788;2024-03-23T15:18:07;100239.28;;;9.91;100.00
46955;BME280;32708;51.212;6.788;2024-03-23T15:21:02;100248.63;;;9.81;100.00
46955;BME280;32708;51.212;6.788;2024-03-23T15:24:01;100238.38;;;9.70;100.00
46955;BME280;32708;51.212;6.788;2024-03-23T15:26:44;100232.78;;;10.13;100.00
46955;BME280;32708;51.212;6.788;2024-03-23T15:29:28;100219.44;;;10.50;100.00
46955;BME280;32708;51.212;6.788;2024-03-23T15:32:05;100222.13;;;9.90;100.00
46955;BME280;32708;51.212;6.788;2024-03-23T15:34:50;100216.75;;;10.11;100.00
46955;BME280;32708;51.212;6.788;2024-03-23T15:37:22;100218.53;;;10.07;100.00
46955;BME280;32708;51.212;6.788;2024-03-23T15:39:57;100215.56;;;9.83;100.00
46955;BME280;32708;51.212;6.788;2024-03-23T15:46:03;100229.91;;;10.09;100.00
46955;BME280;32708;51.212;6.788;2024-03-23T15:48:45;100230.34;;;9.82;100.00
46955;BME280;32708;51.212;6.788;2024-03-23T15:51:35;100230.88;;;10.05;100.00
46955;BME280;32708;51.212;6.788;2024-03-23T15:54:34;100229.38;;;9.78;100.00
46955;BME280;32708;51.212;6.788;2024-03-23T15:57:33;100213.44;;;9.97;100.00
46955;BME280;32708;51.212;6.788;2024-03-23T16:00:34;100220.06;;;10.26;100.00
46955;BME280;32708;51.212;6.788;2024-03-23T16:03:34;100200.25;;;9.99;100.00
46955;BME280;32708;51.212;6.788;2024-03-23T16:06:40;100207.47;;;10.04;100.00
46955;BME280;32708;51.212;6.788;2024-03-23T16:13:51;100198.03;;;9.54;100.00
46955;BME280;32708;51.212;6.788;2024-03-23T16:24:17;100198.50;;;9.56;100.00
46955;BME280;32708;51.212;6.788;2024-03-23T16:27:21;100186.25;;;9.71;100.00
46955;BME280;32708;51.212;6.788;2024-03-23T16:33:30;100181.28;;;10.11;100.00
46955;BME280;32708;51.212;6.788;2024-03-23T16:36:14;100180.53;;;10.02;100.00
46955;BME280;32708;51.212;6.788;2024-03-23T16:38:56;100182.72;;;10.68;100.00